createdAt,value
2019-04-16T00:02:20.104Z,99.60
2019-04-16T00:04:59.072Z,99.90
2019-04-16T00:07:58.142Z,99.90
2019-04-16T00:10:46.294Z,99.90
2019-04-16T00:13:30.441Z,99.90
2019-04-16T00:16:00.253Z,99.90
2019-04-16T00:18:29.284Z,99.90
2019-04-16T00:21:10.640Z,99.90
2019-04-16T00:24:11.102Z,99.90
2019-04-16T00:26:40.421Z,99.90
2019-04-16T00:29:09.975Z,99.90
2019-04-16T00:31:39.433Z,99.90
2019-04-16T00:34:08.466Z,99.90
2019-04-16T00:36:37.442Z,99.90
2019-04-16T00:39:07.289Z,99.90
2019-04-16T00:41:36.254Z,99.90
2019-04-16T00:44:05.289Z,99.90
2019-04-16T00:46:34.237Z,99.90
2019-04-16T00:49:03.189Z,99.90
2019-04-16T00:51:32.057Z,99.90
2019-04-16T00:54:01.077Z,99.90
2019-04-16T00:56:30.386Z,99.90
2019-04-16T00:58:59.325Z,99.90
2019-04-16T01:01:28.354Z,99.90
2019-04-16T01:03:57.570Z,99.90
2019-04-16T01:06:26.429Z,99.90
2019-04-16T01:08:55.416Z,99.90
2019-04-16T01:11:24.425Z,99.90
2019-04-16T01:13:55.719Z,99.90
2019-04-16T01:16:24.158Z,99.90
2019-04-16T01:18:53.122Z,99.90
2019-04-16T01:21:22.187Z,99.90
2019-04-16T01:23:51.054Z,99.90
2019-04-16T01:26:20.078Z,99.90
2019-04-16T01:28:57.495Z,99.90
2019-04-16T01:31:48.437Z,99.90
2019-04-16T01:34:36.788Z,99.90
2019-04-16T01:37:19.350Z,99.90
2019-04-16T01:39:49.890Z,99.90
2019-04-16T01:42:23.375Z,99.90
2019-04-16T01:44:49.639Z,99.90
2019-04-16T01:47:18.617Z,99.90
2019-04-16T01:49:47.646Z,99.90
2019-04-16T01:52:19.029Z,99.90
2019-04-16T01:54:47.363Z,99.90
2019-04-16T01:57:16.378Z,99.90
2019-04-16T01:59:45.376Z,99.90
2019-04-16T02:02:15.878Z,99.90
2019-04-16T02:04:44.974Z,99.90
2019-04-16T02:07:14.015Z,99.90
2019-04-16T02:09:42.923Z,99.90
2019-04-16T02:12:13.520Z,99.90
2019-04-16T02:14:42.723Z,99.90
2019-04-16T02:17:11.735Z,99.90
2019-04-16T02:19:40.787Z,99.90
2019-04-16T02:22:12.599Z,99.90
2019-04-16T02:24:40.962Z,99.90
2019-04-16T02:27:10.278Z,99.90
2019-04-16T02:29:39.260Z,99.90
2019-04-16T02:32:08.167Z,99.90
2019-04-16T02:34:37.127Z,99.90
2019-04-16T02:37:06.345Z,99.90
2019-04-16T02:39:47.643Z,99.90
2019-04-16T02:42:06.133Z,99.90
2019-04-16T02:44:35.083Z,99.90
2019-04-16T02:47:06.216Z,99.90
2019-04-16T02:49:34.780Z,99.90
2019-04-16T02:52:25.485Z,99.90
2019-04-16T02:55:11.255Z,99.90
2019-04-16T02:58:00.065Z,99.90
2019-04-16T03:00:50.373Z,99.90
2019-04-16T03:03:25.701Z,99.90
2019-04-16T03:06:00.644Z,99.90
2019-04-16T03:08:27.027Z,99.90
2019-04-16T03:10:56.084Z,99.90
2019-04-16T03:13:25.912Z,99.90
2019-04-16T03:16:08.956Z,99.90
2019-04-16T03:18:47.404Z,99.90
2019-04-16T03:21:16.751Z,99.90
2019-04-16T03:23:45.714Z,99.90
2019-04-16T03:26:17.572Z,99.90
2019-04-16T03:28:45.748Z,99.90
2019-04-16T03:31:20.688Z,99.90
2019-04-16T03:33:50.279Z,99.90
2019-04-16T03:36:16.601Z,99.90
2019-04-16T08:59:52.416Z,99.90
2019-04-16T09:02:33.552Z,90.90
2019-04-16T09:05:05.943Z,91.50
2019-04-16T09:07:39.448Z,90.60
2019-04-16T09:10:18.270Z,90.10
2019-04-16T09:12:46.056Z,89.50
2019-04-16T09:15:27.242Z,89.80
2019-04-16T09:18:12.329Z,89.30
2019-04-16T09:20:42.732Z,87.60
2019-04-16T09:23:11.753Z,85.70
2019-04-16T09:26:12.088Z,85.30
2019-04-16T09:28:41.144Z,85.00
2019-04-16T09:31:35.528Z,85.10
2019-04-16T09:34:17.997Z,85.70
2019-04-16T09:37:14.619Z,86.50
2019-04-16T09:39:59.221Z,86.30
2019-04-16T09:42:28.121Z,82.40
2019-04-16T09:44:57.241Z,82.40
2019-04-16T09:47:28.949Z,81.90
2019-04-16T09:49:57.023Z,81.90
2019-04-16T09:52:26.045Z,80.90
2019-04-16T09:54:54.967Z,80.80
2019-04-16T09:57:24.516Z,79.10
2019-04-16T10:00:21.311Z,79.80
2019-04-16T10:02:50.997Z,80.20
2019-04-16T10:05:20.058Z,79.80
2019-04-16T10:07:49.076Z,80.00
2019-04-16T10:10:18.194Z,79.10
2019-04-16T10:12:47.184Z,77.20
2019-04-16T10:15:16.555Z,76.90
2019-04-16T10:17:45.661Z,75.80
2019-04-16T10:20:14.702Z,76.60
2019-04-16T10:22:43.689Z,76.70
2019-04-16T10:25:13.938Z,73.90
2019-04-16T10:27:45.162Z,73.50
2019-04-16T10:30:24.621Z,74.10
2019-04-16T10:32:53.921Z,74.70
2019-04-16T10:35:23.442Z,74.50
2019-04-16T10:37:52.749Z,75.70
2019-04-16T10:40:38.029Z,72.20
2019-04-16T10:43:22.680Z,71.60
2019-04-16T10:46:00.351Z,71.60
2019-04-16T10:48:42.934Z,71.00
2019-04-16T10:51:40.718Z,69.80
2019-04-16T10:54:43.647Z,71.60
2019-04-16T10:57:46.854Z,71.90
2019-04-16T11:00:45.889Z,71.10
2019-04-16T11:03:28.795Z,69.30
2019-04-16T11:06:06.175Z,68.50
2019-04-16T11:08:35.868Z,69.30
2019-04-16T11:11:04.982Z,69.50
2019-04-16T11:13:37.561Z,68.50
2019-04-16T11:16:12.598Z,68.80
2019-04-16T11:18:41.634Z,69.00
2019-04-16T11:21:11.623Z,68.60
2019-04-16T11:23:40.765Z,68.90
2019-04-16T11:26:09.896Z,68.20
2019-04-16T11:28:38.858Z,69.50
2019-04-16T11:31:12.171Z,68.20
2019-04-16T11:33:41.485Z,67.70
2019-04-16T11:36:18.672Z,66.30
2019-04-16T11:38:41.298Z,63.60
2019-04-16T11:41:10.616Z,64.40
2019-04-16T11:43:39.694Z,64.40
2019-04-16T11:46:08.827Z,65.10
2019-04-16T11:48:38.311Z,64.40
2019-04-16T11:51:07.828Z,64.90
2019-04-16T11:53:36.846Z,64.00
2019-04-16T11:56:06.218Z,63.10
2019-04-16T11:58:41.944Z,61.10
2019-04-16T12:01:33.259Z,61.00
2019-04-16T12:04:15.323Z,60.80
2019-04-16T12:06:48.039Z,61.10
2019-04-16T12:09:30.141Z,60.80
2019-04-16T12:12:04.263Z,61.20
2019-04-16T12:14:55.324Z,60.70
2019-04-16T12:17:30.807Z,59.60
2019-04-16T12:20:28.081Z,60.10
2019-04-16T12:23:14.301Z,61.90
2019-04-16T12:26:09.426Z,61.70
2019-04-16T12:28:58.091Z,61.90
2019-04-16T12:32:01.037Z,61.20
2019-04-16T12:34:53.940Z,59.70
2019-04-16T12:37:45.260Z,59.00
2019-04-16T12:40:24.827Z,59.20
2019-04-16T12:43:05.968Z,58.40
2019-04-16T12:45:54.068Z,59.90
2019-04-16T12:48:40.646Z,59.70
2019-04-16T12:51:18.396Z,58.60
2019-04-16T12:53:54.850Z,59.40
2019-04-16T12:56:43.156Z,59.10
2019-04-16T12:59:15.200Z,58.10
2019-04-16T13:02:18.743Z,58.30
2019-04-16T13:05:03.938Z,58.50
2019-04-16T13:07:55.221Z,57.80
2019-04-16T13:10:38.045Z,58.60
2019-04-16T13:13:26.349Z,58.50
2019-04-16T13:16:26.412Z,57.40
2019-04-16T13:19:13.010Z,57.60
2019-04-16T13:21:47.661Z,56.90
2019-04-16T13:24:20.077Z,57.50
2019-04-16T13:27:00.966Z,58.10
2019-04-16T13:29:32.085Z,58.10
2019-04-16T13:32:01.041Z,57.60
2019-04-16T13:34:29.943Z,57.00
2019-04-16T13:37:00.345Z,56.80
2019-04-16T13:39:40.270Z,57.20
2019-04-16T13:42:09.106Z,57.30
2019-04-16T13:44:41.769Z,56.90
2019-04-16T13:47:10.814Z,56.10
2019-04-16T13:50:03.562Z,55.80
2019-04-16T13:52:31.182Z,56.50
2019-04-16T13:55:25.483Z,56.60
2019-04-16T13:58:04.518Z,57.10
2019-04-16T14:00:38.702Z,56.80
2019-04-16T14:03:11.522Z,57.00
2019-04-16T14:05:42.676Z,57.90
2019-04-16T14:08:11.574Z,56.90
2019-04-16T14:10:43.171Z,56.30
2019-04-16T14:13:13.503Z,55.80
2019-04-16T14:15:44.761Z,56.60
2019-04-16T14:18:12.842Z,56.80
2019-04-16T14:20:41.926Z,56.90
2019-04-16T14:23:30.315Z,56.20
2019-04-16T14:25:59.307Z,56.50
2019-04-16T14:28:28.260Z,56.30
2019-04-16T14:30:59.031Z,56.20
2019-04-16T14:33:36.061Z,56.50
2019-04-16T14:36:06.374Z,56.60
2019-04-16T14:38:43.679Z,56.50
2019-04-16T14:41:15.840Z,57.10
2019-04-16T14:43:46.942Z,57.10
2019-04-16T14:46:35.219Z,56.70
2019-04-16T14:49:04.299Z,57.30
2019-04-16T14:51:33.211Z,56.70
2019-04-16T14:54:16.711Z,57.30
2019-04-16T14:56:48.311Z,57.40
2019-04-16T14:59:42.720Z,56.60
2019-04-16T15:02:29.967Z,56.40
2019-04-16T15:05:17.519Z,57.10
2019-04-16T15:08:00.588Z,57.40
2019-04-16T15:10:47.312Z,57.90
2019-04-16T15:13:34.701Z,57.90
2019-04-16T15:16:21.028Z,57.60
2019-04-16T15:18:55.567Z,57.30
2019-04-16T15:22:02.128Z,57.60
2019-04-16T15:24:43.211Z,57.70
2019-04-16T15:27:49.745Z,58.40
2019-04-16T15:30:42.838Z,58.50
2019-04-16T15:33:29.620Z,58.60
2019-04-16T15:36:02.100Z,57.50
2019-04-16T15:38:47.752Z,58.10
2019-04-16T15:41:35.756Z,58.00
2019-04-16T15:44:32.080Z,58.40
2019-04-16T15:47:19.204Z,58.50
2019-04-16T15:49:58.542Z,57.90
2019-04-16T15:52:46.022Z,56.90
2019-04-16T15:55:35.716Z,57.60
2019-04-16T15:58:26.629Z,57.90
2019-04-16T16:01:04.705Z,58.30
2019-04-16T16:04:11.084Z,58.60
2019-04-16T16:06:48.798Z,59.10
2019-04-16T16:09:22.651Z,57.90
2019-04-16T16:11:59.729Z,57.90
2019-04-16T16:14:33.163Z,58.50
2019-04-16T16:17:00.412Z,59.10
2019-04-16T16:19:29.639Z,59.20
2019-04-16T16:21:58.690Z,58.40
2019-04-16T16:24:27.769Z,59.30
2019-04-16T16:26:56.845Z,60.40
2019-04-16T16:29:26.030Z,59.70
2019-04-16T16:31:54.982Z,59.40
2019-04-16T16:34:23.994Z,60.20
2019-04-16T16:36:52.962Z,59.60
2019-04-16T16:39:21.990Z,60.00
2019-04-16T16:41:51.235Z,59.40
2019-04-16T16:44:20.499Z,59.40
2019-04-16T16:47:00.982Z,59.90
2019-04-16T16:49:29.981Z,60.50
2019-04-16T16:52:17.438Z,60.30
2019-04-16T16:54:47.920Z,60.30
2019-04-16T16:57:21.058Z,59.70
2019-04-16T16:59:58.286Z,61.20
2019-04-16T17:02:39.090Z,60.50
2019-04-16T17:05:11.457Z,60.70
2019-04-16T17:07:40.787Z,61.30
2019-04-16T17:10:09.830Z,61.30
2019-04-16T17:12:38.796Z,61.20
2019-04-16T17:15:09.316Z,61.30
2019-04-16T17:17:38.663Z,62.80
2019-04-16T17:20:07.710Z,62.30
2019-04-16T17:22:40.467Z,61.90
2019-04-16T17:25:10.507Z,62.00
2019-04-16T17:27:50.595Z,62.60
2019-04-16T17:30:09.252Z,62.60
2019-04-16T17:32:38.300Z,62.80
2019-04-16T17:35:07.926Z,63.30
2019-04-16T17:37:38.192Z,63.40
2019-04-16T17:40:29.432Z,63.30
2019-04-16T17:43:02.822Z,64.00
2019-04-16T17:45:46.208Z,64.00
2019-04-16T17:48:40.272Z,64.10
2019-04-16T17:51:28.380Z,63.70
2019-04-16T17:54:03.888Z,63.90
2019-04-16T17:56:57.980Z,63.60
2019-04-16T17:59:32.369Z,63.70
2019-04-16T18:02:35.692Z,63.90
2019-04-16T18:05:23.668Z,64.20
2019-04-16T18:08:09.544Z,64.40
2019-04-16T18:11:06.144Z,64.70
2019-04-16T18:13:58.473Z,64.70
2019-04-16T18:16:46.593Z,65.10
2019-04-16T18:19:46.357Z,66.20
2019-04-16T18:22:33.604Z,66.00
2019-04-16T18:25:24.909Z,65.90
2019-04-16T18:28:05.396Z,66.10
2019-04-16T18:30:47.954Z,66.60
2019-04-16T18:33:21.169Z,67.30
2019-04-16T18:36:19.041Z,68.60
2019-04-16T18:39:03.777Z,69.30
2019-04-16T18:41:37.302Z,69.70
2019-04-16T18:44:29.246Z,70.10
2019-04-16T18:47:20.542Z,70.40
2019-04-16T18:49:51.753Z,70.70
2019-04-16T18:52:20.973Z,71.10
2019-04-16T18:54:50.042Z,71.50
2019-04-16T18:57:19.370Z,72.00
2019-04-16T18:59:48.450Z,72.30
2019-04-16T19:02:17.578Z,72.50
2019-04-16T19:04:50.671Z,73.00
2019-04-16T19:07:17.694Z,73.00
2019-04-16T19:09:47.035Z,73.00
2019-04-16T19:12:16.139Z,73.30
2019-04-16T19:14:45.130Z,73.20
2019-04-16T19:17:16.553Z,73.50
2019-04-16T19:19:45.714Z,73.70
2019-04-16T19:22:15.130Z,73.50
2019-04-16T19:24:44.258Z,73.50
2019-04-16T19:27:13.386Z,73.60
2019-04-16T19:29:42.838Z,73.50
2019-04-16T19:32:13.262Z,73.40
2019-04-16T19:34:42.590Z,74.30
2019-04-16T19:37:14.318Z,73.30
2019-04-16T19:39:46.337Z,73.10
2019-04-16T19:42:18.614Z,73.30
2019-04-16T19:44:47.642Z,73.20
2019-04-16T19:47:16.718Z,73.40
2019-04-16T19:49:45.860Z,72.50
2019-04-16T19:52:17.313Z,72.70
2019-04-16T19:54:45.643Z,72.90
2019-04-16T19:57:14.795Z,73.30
2019-04-16T19:59:46.411Z,73.50
2019-04-16T20:02:14.711Z,73.40
2019-04-16T20:04:44.425Z,73.30
2019-04-16T20:07:14.426Z,73.60
2019-04-16T20:09:43.506Z,74.00
2019-04-16T20:12:12.639Z,74.30
2019-04-16T20:14:41.899Z,74.70
2019-04-16T20:17:10.877Z,74.90
2019-04-16T20:19:57.649Z,75.10
2019-04-16T20:22:30.403Z,75.60
2019-04-16T20:24:59.660Z,76.00
2019-04-16T20:27:28.931Z,76.40
2019-04-16T20:29:58.055Z,76.50
2019-04-16T20:32:30.873Z,77.70
2019-04-16T20:34:59.444Z,78.60
2019-04-16T20:37:28.512Z,79.10
2019-04-16T20:39:57.580Z,79.50
2019-04-16T20:42:26.568Z,79.80
2019-04-16T20:44:55.862Z,80.40
2019-04-16T20:47:24.857Z,81.20
2019-04-16T20:49:54.522Z,81.60
2019-04-16T20:52:23.893Z,81.70
2019-04-16T20:54:54.216Z,81.00
2019-04-16T20:57:25.679Z,81.10
2019-04-16T20:59:54.056Z,80.70
2019-04-16T21:02:23.491Z,80.30
2019-04-16T21:04:52.400Z,80.30
2019-04-16T21:07:21.478Z,80.60
2019-04-16T21:09:50.517Z,80.00
2019-04-16T21:12:19.505Z,80.10
2019-04-16T21:14:50.934Z,80.20
2019-04-16T21:17:19.224Z,80.60
2019-04-16T21:19:48.268Z,80.80
2019-04-16T21:22:18.644Z,81.10
2019-04-16T21:24:48.197Z,81.30
2019-04-16T21:27:17.183Z,82.10
2019-04-16T21:29:47.501Z,82.10
2019-04-16T21:32:35.597Z,82.40
2019-04-16T21:35:12.472Z,82.40
2019-04-16T21:38:02.026Z,82.60
2019-04-16T21:40:31.409Z,82.50
2019-04-16T21:43:00.300Z,82.20
2019-04-16T21:45:29.194Z,83.00
2019-04-16T21:47:58.061Z,82.40
2019-04-16T21:50:27.440Z,82.60
2019-04-16T21:52:56.692Z,83.20
2019-04-16T21:55:25.781Z,83.70
2019-04-16T21:57:54.877Z,84.30
2019-04-16T22:00:42.157Z,84.60
2019-04-16T22:03:11.877Z,85.20
2019-04-16T22:05:41.417Z,85.60
2019-04-16T22:08:10.441Z,86.00
2019-04-16T22:10:39.417Z,85.80
2019-04-16T22:13:08.397Z,86.20
2019-04-16T22:15:37.445Z,86.50
2019-04-16T22:18:09.105Z,86.90
2019-04-16T22:20:37.270Z,87.40
2019-04-16T22:23:06.318Z,88.60
2019-04-16T22:25:35.642Z,89.40
2019-04-16T22:28:04.706Z,89.50
2019-04-16T22:30:33.690Z,90.20
2019-04-16T22:33:06.441Z,90.50
2019-04-16T22:35:33.446Z,90.70
2019-04-16T22:38:02.430Z,90.90
2019-04-16T22:40:43.662Z,91.40
2019-04-16T22:43:30.902Z,92.20
2019-04-16T22:46:17.874Z,92.80
2019-04-16T22:48:57.554Z,93.70
2019-04-16T22:51:26.919Z,94.40
2019-04-16T22:53:56.233Z,94.90
2019-04-16T22:56:47.543Z,95.40
2019-04-16T22:59:16.650Z,96.10
2019-04-16T23:01:46.619Z,96.70
2019-04-16T23:04:15.566Z,97.30
2019-04-16T23:06:44.730Z,97.90
2019-04-16T23:09:17.198Z,98.30
2019-04-16T23:11:44.334Z,98.60
2019-04-16T23:14:13.585Z,99.10
2019-04-16T23:16:43.027Z,99.50
2019-04-16T23:19:12.419Z,99.90
2019-04-16T23:21:42.613Z,99.90
2019-04-16T23:24:12.046Z,99.90
2019-04-16T23:26:41.139Z,99.90
2019-04-16T23:29:12.236Z,99.90
2019-04-16T23:31:40.707Z,99.90
2019-04-16T23:34:09.796Z,99.90
2019-04-16T23:36:38.723Z,99.90
2019-04-16T23:39:08.147Z,99.90
2019-04-16T23:41:37.383Z,99.90
2019-04-16T23:44:34.532Z,99.90
2019-04-16T23:47:42.009Z,99.90
2019-04-16T23:50:43.843Z,99.90
2019-04-16T23:53:09.003Z,99.90
2019-04-16T23:56:07.212Z,99.90
2019-04-16T23:59:02.539Z,99.90
